sensor_id;sensor_type;location;lat;lon;timestamp;temperature;humidity
11239;DHT22;5677;48.488;13.436;2024-03-25T00:01:35;10.90;48.40
11239;DHT22;5677;48.488;13.436;2024-03-25T00:04:01;10.90;48.40
11239;DHT22;5677;48.488;13.436;2024-03-25T00:06:27;10.90;48.40
11239;DHT22;5677;48.488;13.436;2024-03-25T00:08:54;10.90;48.40
11239;DHT22;5677;48.488;13.436;2024-03-25T00:11:20;10.90;48.40
11239;DHT22;5677;48.488;13.436;2024-03-25T00:13:47;10.90;48.40
11239;DHT22;5677;48.488;13.436;2024-03-25T00:16:13;10.90;48.40
11239;DHT22;5677;48.488;13.436;2024-03-25T00:18:41;10.90;48.40
11239;DHT22;5677;48.488;13.436;2024-03-25T00:21:07;10.90;48.40
11239;DHT22;5677;48.488;13.436;2024-03-25T00:23:33;10.90;48.40
11239;DHT22;5677;48.488;13.436;2024-03-25T00:25:59;10.90;48.40
11239;DHT22;5677;48.488;13.436;2024-03-25T00:28:26;10.90;48.40
11239;DHT22;5677;48.488;13.436;2024-03-25T00:30:52;10.90;48.40
11239;DHT22;5677;48.488;13.436;2024-03-25T00:33:19;10.90;48.40
11239;DHT22;5677;48.488;13.436;2024-03-25T00:35:46;10.90;48.40
11239;DHT22;5677;48.488;13.436;2024-03-25T00:38:13;10.90;48.40
11239;DHT22;5677;48.488;13.436;2024-03-25T00:40:38;10.90;48.40
11239;DHT22;5677;48.488;13.436;2024-03-25T00:43:05;10.80;48.30
11239;DHT22;5677;48.488;13.436;2024-03-25T00:45:31;10.90;48.40
11239;DHT22;5677;48.488;13.436;2024-03-25T00:47:58;10.90;48.40
11239;DHT22;5677;48.488;13.436;2024-03-25T00:50:25;10.90;48.40
11239;DHT22;5677;48.488;13.436;2024-03-25T00:52:53;10.90;48.40
11239;DHT22;5677;48.488;13.436;2024-03-25T00:55:19;10.90;48.40
11239;DHT22;5677;48.488;13.436;2024-03-25T00:57:46;10.80;48.30
11239;DHT22;5677;48.488;13.436;2024-03-25T01:00:14;10.90;48.50
11239;DHT22;5677;48.488;13.436;2024-03-25T01:02:41;10.90;48.50
11239;DHT22;5677;48.488;13.436;2024-03-25T01:05:08;10.80;48.30
11239;DHT22;5677;48.488;13.436;2024-03-25T01:07:35;10.90;48.50
11239;DHT22;5677;48.488;13.436;2024-03-25T01:10:03;10.80;48.40
11239;DHT22;5677;48.488;13.436;2024-03-25T01:12:30;10.90;48.50
11239;DHT22;5677;48.488;13.436;2024-03-25T01:14:55;10.80;48.40
11239;DHT22;5677;48.488;13.436;2024-03-25T01:17:22;10.80;48.40
11239;DHT22;5677;48.488;13.436;2024-03-25T01:19:48;10.80;48.30
11239;DHT22;5677;48.488;13.436;2024-03-25T01:22:15;10.80;48.30
11239;DHT22;5677;48.488;13.436;2024-03-25T01:24:41;10.80;48.40
11239;DHT22;5677;48.488;13.436;2024-03-25T01:27:09;10.80;48.30
11239;DHT22;5677;48.488;13.436;2024-03-25T01:29:35;10.80;48.30
11239;DHT22;5677;48.488;13.436;2024-03-25T01:32:02;10.80;48.40
11239;DHT22;5677;48.488;13.436;2024-03-25T01:34:29;10.80;48.30
11239;DHT22;5677;48.488;13.436;2024-03-25T01:36:56;10.80;48.30
11239;DHT22;5677;48.488;13.436;2024-03-25T01:39:22;10.80;48.40
11239;DHT22;5677;48.488;13.436;2024-03-25T01:41:50;10.80;48.40
11239;DHT22;5677;48.488;13.436;2024-03-25T01:44:17;10.80;48.40
11239;DHT22;5677;48.488;13.436;2024-03-25T01:46:43;10.80;48.40
11239;DHT22;5677;48.488;13.436;2024-03-25T01:49:10;10.80;48.40
11239;DHT22;5677;48.488;13.436;2024-03-25T01:51:39;10.80;48.40
11239;DHT22;5677;48.488;13.436;2024-03-25T01:54:06;10.80;48.40
11239;DHT22;5677;48.488;13.436;2024-03-25T01:56:35;10.80;48.40
11239;DHT22;5677;48.488;13.436;2024-03-25T01:59:02;10.80;48.40
11239;DHT22;5677;48.488;13.436;2024-03-25T02:01:31;10.80;48.40
11239;DHT22;5677;48.488;13.436;2024-03-25T02:03:57;10.80;48.30
11239;DHT22;5677;48.488;13.436;2024-03-25T02:06:27;10.80;48.30
11239;DHT22;5677;48.488;13.436;2024-03-25T02:08:53;10.80;48.40
11239;DHT22;5677;48.488;13.436;2024-03-25T02:11:22;10.80;48.40
11239;DHT22;5677;48.488;13.436;2024-03-25T02:13:49;10.80;48.40
11239;DHT22;5677;48.488;13.436;2024-03-25T02:16:15;10.80;48.40
11239;DHT22;5677;48.488;13.436;2024-03-25T02:18:43;10.80;48.40
11239;DHT22;5677;48.488;13.436;2024-03-25T02:21:10;10.80;48.40
11239;DHT22;5677;48.488;13.436;2024-03-25T02:23:38;10.80;48.40
11239;DHT22;5677;48.488;13.436;2024-03-25T02:26:06;10.80;48.40
11239;DHT22;5677;48.488;13.436;2024-03-25T02:28:32;10.80;48.40
11239;DHT22;5677;48.488;13.436;2024-03-25T02:30:59;10.80;48.40
11239;DHT22;5677;48.488;13.436;2024-03-25T02:33:25;10.80;48.40
11239;DHT22;5677;48.488;13.436;2024-03-25T02:35:51;10.80;48.40
11239;DHT22;5677;48.488;13.436;2024-03-25T02:38:17;10.80;48.40
11239;DHT22;5677;48.488;13.436;2024-03-25T02:40:44;10.80;48.40
11239;DHT22;5677;48.488;13.436;2024-03-25T02:43:12;10.80;48.40
11239;DHT22;5677;48.488;13.436;2024-03-25T02:45:38;10.80;48.40
11239;DHT22;5677;48.488;13.436;2024-03-25T02:48:05;10.80;48.40
11239;DHT22;5677;48.488;13.436;2024-03-25T02:50:31;10.80;48.40
11239;DHT22;5677;48.488;13.436;2024-03-25T02:52:57;10.80;48.40
11239;DHT22;5677;48.488;13.436;2024-03-25T02:55:24;10.80;48.40
11239;DHT22;5677;48.488;13.436;2024-03-25T02:57:50;10.80;48.40
11239;DHT22;5677;48.488;13.436;2024-03-25T03:00:18;10.80;48.40
11239;DHT22;5677;48.488;13.436;2024-03-25T03:02:44;10.80;48.40
11239;DHT22;5677;48.488;13.436;2024-03-25T03:05:10;10.70;48.40
11239;DHT22;5677;48.488;13.436;2024-03-25T03:07:36;10.80;48.40
11239;DHT22;5677;48.488;13.436;2024-03-25T03:10:03;10.80;48.40
11239;DHT22;5677;48.488;13.436;2024-03-25T03:12:29;10.70;48.40
11239;DHT22;5677;48.488;13.436;2024-03-25T03:14:56;10.80;48.40
11239;DHT22;5677;48.488;13.436;2024-03-25T03:17:23;10.70;48.40
11239;DHT22;5677;48.488;13.436;2024-03-25T03:19:50;10.80;48.40
11239;DHT22;5677;48.488;13.436;2024-03-25T03:22:15;10.80;48.40
11239;DHT22;5677;48.488;13.436;2024-03-25T03:24:42;10.80;48.40
11239;DHT22;5677;48.488;13.436;2024-03-25T03:27:08;10.80;48.40
11239;DHT22;5677;48.488;13.436;2024-03-25T03:29:35;10.80;48.40
11239;DHT22;5677;48.488;13.436;2024-03-25T03:32:00;10.70;48.40
11239;DHT22;5677;48.488;13.436;2024-03-25T03:34:28;10.80;48.40
11239;DHT22;5677;48.488;13.436;2024-03-25T03:36:54;10.80;48.40
11239;DHT22;5677;48.488;13.436;2024-03-25T03:39:21;10.80;48.40
11239;DHT22;5677;48.488;13.436;2024-03-25T03:41:47;10.70;48.40
11239;DHT22;5677;48.488;13.436;2024-03-25T03:44:14;10.70;48.40
11239;DHT22;5677;48.488;13.436;2024-03-25T03:46:40;10.80;48.40
11239;DHT22;5677;48.488;13.436;2024-03-25T03:49:07;10.70;48.40
11239;DHT22;5677;48.488;13.436;2024-03-25T03:51:34;10.70;48.40
11239;DHT22;5677;48.488;13.436;2024-03-25T03:54:01;10.80;48.40
11239;DHT22;5677;48.488;13.436;2024-03-25T03:56:27;10.80;48.40
11239;DHT22;5677;48.488;13.436;2024-03-25T03:58:53;10.70;48.40
11239;DHT22;5677;48.488;13.436;2024-03-25T04:01:19;10.70;48.40
11239;DHT22;5677;48.488;13.436;2024-03-25T04:03:46;10.70;48.40
11239;DHT22;5677;48.488;13.436;2024-03-25T04:06:12;10.70;48.40
11239;DHT22;5677;48.488;13.436;2024-03-25T04:08:41;10.70;48.40
11239;DHT22;5677;48.488;13.436;2024-03-25T04:11:07;10.70;48.40
11239;DHT22;5677;48.488;13.436;2024-03-25T04:13:35;10.70;48.40
11239;DHT22;5677;48.488;13.436;2024-03-25T04:16:02;10.70;48.40
11239;DHT22;5677;48.488;13.436;2024-03-25T04:18:29;10.70;48.40
11239;DHT22;5677;48.488;13.436;2024-03-25T04:20:56;10.70;48.40
11239;DHT22;5677;48.488;13.436;2024-03-25T04:23:23;10.70;48.40
11239;DHT22;5677;48.488;13.436;2024-03-25T04:25:50;10.70;48.40
11239;DHT22;5677;48.488;13.436;2024-03-25T04:28:17;10.70;48.40
11239;DHT22;5677;48.488;13.436;2024-03-25T04:30:50;10.70;48.40
11239;DHT22;5677;48.488;13.436;2024-03-25T04:33:16;10.70;48.40
11239;DHT22;5677;48.488;13.436;2024-03-25T04:35:44;10.70;48.40
11239;DHT22;5677;48.488;13.436;2024-03-25T04:38:11;10.70;48.40
11239;DHT22;5677;48.488;13.436;2024-03-25T04:40:37;10.70;48.40
11239;DHT22;5677;48.488;13.436;2024-03-25T04:43:04;10.70;48.40
11239;DHT22;5677;48.488;13.436;2024-03-25T04:45:30;10.70;48.40
11239;DHT22;5677;48.488;13.436;2024-03-25T04:47:56;10.70;48.40
11239;DHT22;5677;48.488;13.436;2024-03-25T04:50:22;10.70;48.40
11239;DHT22;5677;48.488;13.436;2024-03-25T04:52:48;10.70;48.40
11239;DHT22;5677;48.488;13.436;2024-03-25T04:55:14;10.70;48.40
11239;DHT22;5677;48.488;13.436;2024-03-25T04:57:40;10.70;48.40
11239;DHT22;5677;48.488;13.436;2024-03-25T05:00:08;10.70;48.40
11239;DHT22;5677;48.488;13.436;2024-03-25T05:02:36;10.70;48.40
11239;DHT22;5677;48.488;13.436;2024-03-25T05:05:02;10.70;48.40
11239;DHT22;5677;48.488;13.436;2024-03-25T05:07:28;10.70;48.40
11239;DHT22;5677;48.488;13.436;2024-03-25T05:09:54;10.70;48.50
11239;DHT22;5677;48.488;13.436;2024-03-25T05:12:20;10.70;48.40
11239;DHT22;5677;48.488;13.436;2024-03-25T05:14:45;10.70;48.40
11239;DHT22;5677;48.488;13.436;2024-03-25T05:17:13;10.70;48.40
11239;DHT22;5677;48.488;13.436;2024-03-25T05:19:39;10.70;48.40
11239;DHT22;5677;48.488;13.436;2024-03-25T05:22:04;10.70;48.40
11239;DHT22;5677;48.488;13.436;2024-03-25T05:24:30;10.70;48.40
11239;DHT22;5677;48.488;13.436;2024-03-25T05:26:56;10.70;48.40
11239;DHT22;5677;48.488;13.436;2024-03-25T05:29:22;10.70;48.40
11239;DHT22;5677;48.488;13.436;2024-03-25T05:31:56;10.70;48.40
11239;DHT22;5677;48.488;13.436;2024-03-25T05:34:24;10.70;48.40
11239;DHT22;5677;48.488;13.436;2024-03-25T05:36:50;10.70;48.40
11239;DHT22;5677;48.488;13.436;2024-03-25T05:39:16;10.70;48.40
11239;DHT22;5677;48.488;13.436;2024-03-25T05:41:42;10.70;48.40
11239;DHT22;5677;48.488;13.436;2024-03-25T05:44:08;10.70;48.40
11239;DHT22;5677;48.488;13.436;2024-03-25T05:46:33;10.70;48.40
11239;DHT22;5677;48.488;13.436;2024-03-25T05:49:01;10.70;48.40
11239;DHT22;5677;48.488;13.436;2024-03-25T05:51:29;10.70;48.40
11239;DHT22;5677;48.488;13.436;2024-03-25T05:53:54;10.70;48.50
11239;DHT22;5677;48.488;13.436;2024-03-25T05:56:20;10.70;48.40
11239;DHT22;5677;48.488;13.436;2024-03-25T05:58:46;10.70;48.40
11239;DHT22;5677;48.488;13.436;2024-03-25T06:01:12;10.70;49.00
11239;DHT22;5677;48.488;13.436;2024-03-25T06:03:38;10.70;48.40
11239;DHT22;5677;48.488;13.436;2024-03-25T06:06:04;10.70;48.40
11239;DHT22;5677;48.488;13.436;2024-03-25T06:08:31;10.70;48.40
11239;DHT22;5677;48.488;13.436;2024-03-25T06:11:00;10.70;48.40
11239;DHT22;5677;48.488;13.436;2024-03-25T06:13:27;10.70;48.40
11239;DHT22;5677;48.488;13.436;2024-03-25T06:15:53;10.70;48.40
11239;DHT22;5677;48.488;13.436;2024-03-25T06:18:19;10.70;48.40
11239;DHT22;5677;48.488;13.436;2024-03-25T06:20:45;10.60;48.30
11239;DHT22;5677;48.488;13.436;2024-03-25T06:23:10;10.70;48.40
11239;DHT22;5677;48.488;13.436;2024-03-25T06:25:38;10.70;48.40
11239;DHT22;5677;48.488;13.436;2024-03-25T06:28:04;10.70;48.40
11239;DHT22;5677;48.488;13.436;2024-03-25T06:30:30;10.70;48.40
11239;DHT22;5677;48.488;13.436;2024-03-25T06:33:14;10.70;48.40
11239;DHT22;5677;48.488;13.436;2024-03-25T06:35:58;10.70;48.40
11239;DHT22;5677;48.488;13.436;2024-03-25T06:38:24;10.70;48.40
11239;DHT22;5677;48.488;13.436;2024-03-25T06:40:51;10.60;48.30
11239;DHT22;5677;48.488;13.436;2024-03-25T06:43:17;10.70;48.40
11239;DHT22;5677;48.488;13.436;2024-03-25T06:45:43;10.70;48.40
11239;DHT22;5677;48.488;13.436;2024-03-25T06:48:09;10.70;48.40
11239;DHT22;5677;48.488;13.436;2024-03-25T06:50:35;10.70;48.40
11239;DHT22;5677;48.488;13.436;2024-03-25T06:53:00;10.60;48.30
11239;DHT22;5677;48.488;13.436;2024-03-25T06:55:26;10.60;48.90
11239;DHT22;5677;48.488;13.436;2024-03-25T06:57:54;10.70;48.40
11239;DHT22;5677;48.488;13.436;2024-03-25T07:00:20;10.70;48.30
11239;DHT22;5677;48.488;13.436;2024-03-25T07:02:46;10.70;48.40
11239;DHT22;5677;48.488;13.436;2024-03-25T07:05:12;10.70;48.40
11239;DHT22;5677;48.488;13.436;2024-03-25T07:07:37;10.70;48.40
11239;DHT22;5677;48.488;13.436;2024-03-25T07:10:04;10.70;48.40
11239;DHT22;5677;48.488;13.436;2024-03-25T07:12:30;10.60;48.30
11239;DHT22;5677;48.488;13.436;2024-03-25T07:14:57;10.60;48.20
11239;DHT22;5677;48.488;13.436;2024-03-25T07:17:23;10.70;48.30
11239;DHT22;5677;48.488;13.436;2024-03-25T07:19:49;10.60;48.20
11239;DHT22;5677;48.488;13.436;2024-03-25T07:22:15;10.70;48.30
11239;DHT22;5677;48.488;13.436;2024-03-25T07:24:40;10.70;48.30
11239;DHT22;5677;48.488;13.436;2024-03-25T07:27:06;10.70;48.30
11239;DHT22;5677;48.488;13.436;2024-03-25T07:29:32;10.70;48.30
11239;DHT22;5677;48.488;13.436;2024-03-25T07:31:59;10.70;48.30
11239;DHT22;5677;48.488;13.436;2024-03-25T07:34:25;10.70;48.30
11239;DHT22;5677;48.488;13.436;2024-03-25T07:36:52;10.70;48.30
11239;DHT22;5677;48.488;13.436;2024-03-25T07:39:17;10.60;48.20
11239;DHT22;5677;48.488;13.436;2024-03-25T07:41:43;10.70;48.20
11239;DHT22;5677;48.488;13.436;2024-03-25T07:44:09;10.70;48.20
11239;DHT22;5677;48.488;13.436;2024-03-25T07:46:35;10.70;48.20
11239;DHT22;5677;48.488;13.436;2024-03-25T07:49:02;10.70;48.20
11239;DHT22;5677;48.488;13.436;2024-03-25T07:51:28;10.70;48.20
11239;DHT22;5677;48.488;13.436;2024-03-25T07:53:54;10.70;48.20
11239;DHT22;5677;48.488;13.436;2024-03-25T07:56:20;10.70;48.20
11239;DHT22;5677;48.488;13.436;2024-03-25T07:58:45;10.70;48.10
11239;DHT22;5677;48.488;13.436;2024-03-25T08:01:11;10.70;48.10
11239;DHT22;5677;48.488;13.436;2024-03-25T08:03:37;10.80;48.10
11239;DHT22;5677;48.488;13.436;2024-03-25T08:06:04;10.80;48.10
11239;DHT22;5677;48.488;13.436;2024-03-25T08:08:31;10.80;48.10
11239;DHT22;5677;48.488;13.436;2024-03-25T08:10:56;10.80;48.00
11239;DHT22;5677;48.488;13.436;2024-03-25T08:13:22;10.80;48.00
11239;DHT22;5677;48.488;13.436;2024-03-25T08:15:48;10.80;48.00
11239;DHT22;5677;48.488;13.436;2024-03-25T08:18:14;10.80;48.00
11239;DHT22;5677;48.488;13.436;2024-03-25T08:20:40;10.80;47.90
11239;DHT22;5677;48.488;13.436;2024-03-25T08:23:07;10.80;47.90
11239;DHT22;5677;48.488;13.436;2024-03-25T08:25:33;10.80;47.90
11239;DHT22;5677;48.488;13.436;2024-03-25T08:27:59;10.90;47.90
11239;DHT22;5677;48.488;13.436;2024-03-25T08:30:25;10.80;47.80
11239;DHT22;5677;48.488;13.436;2024-03-25T08:32:50;10.80;47.80
11239;DHT22;5677;48.488;13.436;2024-03-25T08:35:17;10.90;47.90
11239;DHT22;5677;48.488;13.436;2024-03-25T08:37:42;10.90;47.90
11239;DHT22;5677;48.488;13.436;2024-03-25T08:40:10;10.90;47.80
11239;DHT22;5677;48.488;13.436;2024-03-25T08:42:36;10.90;47.90
11239;DHT22;5677;48.488;13.436;2024-03-25T08:45:03;10.90;48.50
11239;DHT22;5677;48.488;13.436;2024-03-25T08:47:28;10.90;47.90
11239;DHT22;5677;48.488;13.436;2024-03-25T08:49:54;10.90;47.80
11239;DHT22;5677;48.488;13.436;2024-03-25T08:52:20;10.80;47.70
11239;DHT22;5677;48.488;13.436;2024-03-25T08:54:46;10.90;47.80
11239;DHT22;5677;48.488;13.436;2024-03-25T08:57:13;10.90;47.90
11239;DHT22;5677;48.488;13.436;2024-03-25T08:59:39;10.90;47.90
11239;DHT22;5677;48.488;13.436;2024-03-25T09:02:05;10.90;47.80
11239;DHT22;5677;48.488;13.436;2024-03-25T09:04:31;10.90;47.80
11239;DHT22;5677;48.488;13.436;2024-03-25T09:06:57;10.90;47.80
11239;DHT22;5677;48.488;13.436;2024-03-25T09:09:23;10.90;47.80
11239;DHT22;5677;48.488;13.436;2024-03-25T09:12:07;10.90;47.80
11239;DHT22;5677;48.488;13.436;2024-03-25T09:14:34;10.90;47.80
11239;DHT22;5677;48.488;13.436;2024-03-25T09:17:00;10.90;47.80
11239;DHT22;5677;48.488;13.436;2024-03-25T09:19:26;10.90;47.80
11239;DHT22;5677;48.488;13.436;2024-03-25T09:21:52;10.90;47.80
11239;DHT22;5677;48.488;13.436;2024-03-25T09:24:17;10.90;47.80
11239;DHT22;5677;48.488;13.436;2024-03-25T09:26:43;10.90;47.80
11239;DHT22;5677;48.488;13.436;2024-03-25T09:29:09;10.90;47.80
11239;DHT22;5677;48.488;13.436;2024-03-25T09:31:37;10.90;47.80
11239;DHT22;5677;48.488;13.436;2024-03-25T09:34:02;10.90;47.70
11239;DHT22;5677;48.488;13.436;2024-03-25T09:36:28;10.90;47.70
11239;DHT22;5677;48.488;13.436;2024-03-25T09:38:54;10.90;47.70
11239;DHT22;5677;48.488;13.436;2024-03-25T09:41:20;10.90;47.70
11239;DHT22;5677;48.488;13.436;2024-03-25T09:43:48;10.90;47.70
11239;DHT22;5677;48.488;13.436;2024-03-25T09:46:15;10.90;47.60
11239;DHT22;5677;48.488;13.436;2024-03-25T09:48:42;11.00;47.60
11239;DHT22;5677;48.488;13.436;2024-03-25T09:51:09;11.00;47.70
11239;DHT22;5677;48.488;13.436;2024-03-25T09:53:35;11.00;47.60
11239;DHT22;5677;48.488;13.436;2024-03-25T09:56:01;11.00;47.50
11239;DHT22;5677;48.488;13.436;2024-03-25T09:58:27;11.00;47.50
11239;DHT22;5677;48.488;13.436;2024-03-25T10:00:54;11.00;47.50
11239;DHT22;5677;48.488;13.436;2024-03-25T10:03:20;11.10;47.50
11239;DHT22;5677;48.488;13.436;2024-03-25T10:05:47;11.10;47.50
11239;DHT22;5677;48.488;13.436;2024-03-25T10:08:13;11.10;47.50
11239;DHT22;5677;48.488;13.436;2024-03-25T10:10:39;11.10;47.40
11239;DHT22;5677;48.488;13.436;2024-03-25T10:13:05;11.10;47.50
11239;DHT22;5677;48.488;13.436;2024-03-25T10:15:32;11.10;47.30
11239;DHT22;5677;48.488;13.436;2024-03-25T10:17:58;11.10;47.30
11239;DHT22;5677;48.488;13.436;2024-03-25T10:20:24;11.10;47.40
11239;DHT22;5677;48.488;13.436;2024-03-25T10:22:51;11.10;47.40
11239;DHT22;5677;48.488;13.436;2024-03-25T10:25:25;11.10;47.40
11239;DHT22;5677;48.488;13.436;2024-03-25T10:27:55;11.10;47.40
11239;DHT22;5677;48.488;13.436;2024-03-25T10:30:21;11.10;47.40
11239;DHT22;5677;48.488;13.436;2024-03-25T10:32:58;11.10;47.30
11239;DHT22;5677;48.488;13.436;2024-03-25T10:35:26;11.10;47.30
11239;DHT22;5677;48.488;13.436;2024-03-25T10:37:55;11.10;47.30
11239;DHT22;5677;48.488;13.436;2024-03-25T10:40:23;11.10;47.30
11239;DHT22;5677;48.488;13.436;2024-03-25T10:42:52;11.10;47.30
11239;DHT22;5677;48.488;13.436;2024-03-25T10:45:18;11.10;47.30
11239;DHT22;5677;48.488;13.436;2024-03-25T10:47:44;11.10;47.30
11239;DHT22;5677;48.488;13.436;2024-03-25T10:50:12;11.10;47.30
11239;DHT22;5677;48.488;13.436;2024-03-25T10:52:41;11.10;47.40
11239;DHT22;5677;48.488;13.436;2024-03-25T10:55:08;11.10;47.40
11239;DHT22;5677;48.488;13.436;2024-03-25T10:57:35;11.10;47.40
11239;DHT22;5677;48.488;13.436;2024-03-25T11:00:02;11.00;47.40
11239;DHT22;5677;48.488;13.436;2024-03-25T11:02:30;11.00;47.40
11239;DHT22;5677;48.488;13.436;2024-03-25T11:04:56;11.10;47.50
11239;DHT22;5677;48.488;13.436;2024-03-25T11:07:30;11.00;47.40
11239;DHT22;5677;48.488;13.436;2024-03-25T11:10:03;11.00;47.40
11239;DHT22;5677;48.488;13.436;2024-03-25T11:12:35;11.00;47.40
11239;DHT22;5677;48.488;13.436;2024-03-25T11:15:01;11.00;47.40
11239;DHT22;5677;48.488;13.436;2024-03-25T11:17:29;11.00;47.40
11239;DHT22;5677;48.488;13.436;2024-03-25T11:20:05;11.00;47.40
11239;DHT22;5677;48.488;13.436;2024-03-25T11:22:32;11.10;47.50
11239;DHT22;5677;48.488;13.436;2024-03-25T11:25:05;11.00;47.40
11239;DHT22;5677;48.488;13.436;2024-03-25T11:27:35;11.10;47.40
11239;DHT22;5677;48.488;13.436;2024-03-25T11:30:01;11.00;47.30
11239;DHT22;5677;48.488;13.436;2024-03-25T11:32:28;11.10;47.50
11239;DHT22;5677;48.488;13.436;2024-03-25T11:34:54;11.10;47.40
11239;DHT22;5677;48.488;13.436;2024-03-25T11:37:20;11.10;47.40
11239;DHT22;5677;48.488;13.436;2024-03-25T11:39:46;11.10;48.00
11239;DHT22;5677;48.488;13.436;2024-03-25T11:42:13;11.10;47.30
11239;DHT22;5677;48.488;13.436;2024-03-25T11:44:40;11.10;47.20
11239;DHT22;5677;48.488;13.436;2024-03-25T11:47:07;11.10;47.20
11239;DHT22;5677;48.488;13.436;2024-03-25T11:49:33;11.20;47.20
11239;DHT22;5677;48.488;13.436;2024-03-25T11:51:59;11.20;47.20
11239;DHT22;5677;48.488;13.436;2024-03-25T11:54:27;11.20;47.60
11239;DHT22;5677;48.488;13.436;2024-03-25T11:56:53;11.20;47.20
11239;DHT22;5677;48.488;13.436;2024-03-25T11:59:19;11.20;47.20
11239;DHT22;5677;48.488;13.436;2024-03-25T12:01:46;11.20;47.20
11239;DHT22;5677;48.488;13.436;2024-03-25T12:04:16;11.10;47.20
11239;DHT22;5677;48.488;13.436;2024-03-25T12:06:42;11.10;47.20
11239;DHT22;5677;48.488;13.436;2024-03-25T12:09:10;11.10;47.20
11239;DHT22;5677;48.488;13.436;2024-03-25T12:11:54;11.20;47.20
11239;DHT22;5677;48.488;13.436;2024-03-25T12:14:21;11.20;47.20
11239;DHT22;5677;48.488;13.436;2024-03-25T12:16:48;11.20;47.20
11239;DHT22;5677;48.488;13.436;2024-03-25T12:19:15;11.20;47.20
11239;DHT22;5677;48.488;13.436;2024-03-25T12:21:41;11.20;47.20
11239;DHT22;5677;48.488;13.436;2024-03-25T12:24:07;11.20;47.10
11239;DHT22;5677;48.488;13.436;2024-03-25T12:26:34;11.20;47.10
11239;DHT22;5677;48.488;13.436;2024-03-25T12:29:00;11.20;47.10
11239;DHT22;5677;48.488;13.436;2024-03-25T12:31:26;11.20;47.10
11239;DHT22;5677;48.488;13.436;2024-03-25T12:33:53;11.20;47.10
11239;DHT22;5677;48.488;13.436;2024-03-25T12:36:20;11.20;47.10
11239;DHT22;5677;48.488;13.436;2024-03-25T12:38:54;11.20;47.10
11239;DHT22;5677;48.488;13.436;2024-03-25T12:41:22;11.20;47.00
11239;DHT22;5677;48.488;13.436;2024-03-25T12:43:50;11.20;47.00
11239;DHT22;5677;48.488;13.436;2024-03-25T12:46:16;11.20;47.00
11239;DHT22;5677;48.488;13.436;2024-03-25T12:48:42;11.20;47.00
11239;DHT22;5677;48.488;13.436;2024-03-25T12:51:13;11.20;47.00
11239;DHT22;5677;48.488;13.436;2024-03-25T12:53:39;11.20;47.10
11239;DHT22;5677;48.488;13.436;2024-03-25T12:56:06;11.20;47.00
11239;DHT22;5677;48.488;13.436;2024-03-25T12:58:32;11.20;47.00
11239;DHT22;5677;48.488;13.436;2024-03-25T13:00:57;11.20;47.70
11239;DHT22;5677;48.488;13.436;2024-03-25T13:03:24;11.30;47.10
11239;DHT22;5677;48.488;13.436;2024-03-25T13:05:50;11.20;47.00
11239;DHT22;5677;48.488;13.436;2024-03-25T13:08:17;11.30;47.00
11239;DHT22;5677;48.488;13.436;2024-03-25T13:10:43;11.30;47.00
11239;DHT22;5677;48.488;13.436;2024-03-25T13:13:09;11.30;46.90
11239;DHT22;5677;48.488;13.436;2024-03-25T13:15:35;11.30;46.90
11239;DHT22;5677;48.488;13.436;2024-03-25T13:18:01;11.30;46.90
11239;DHT22;5677;48.488;13.436;2024-03-25T13:20:27;11.40;46.90
11239;DHT22;5677;48.488;13.436;2024-03-25T13:22:54;11.40;46.90
11239;DHT22;5677;48.488;13.436;2024-03-25T13:25:22;11.40;46.80
11239;DHT22;5677;48.488;13.436;2024-03-25T13:27:48;11.40;46.80
11239;DHT22;5677;48.488;13.436;2024-03-25T13:30:14;11.30;46.80
11239;DHT22;5677;48.488;13.436;2024-03-25T13:32:40;11.40;46.80
11239;DHT22;5677;48.488;13.436;2024-03-25T13:35:06;11.40;46.80
11239;DHT22;5677;48.488;13.436;2024-03-25T13:37:32;11.30;46.80
11239;DHT22;5677;48.488;13.436;2024-03-25T13:39:58;11.40;46.80
11239;DHT22;5677;48.488;13.436;2024-03-25T13:42:25;11.40;46.80
11239;DHT22;5677;48.488;13.436;2024-03-25T13:44:51;11.40;46.80
11239;DHT22;5677;48.488;13.436;2024-03-25T13:47:17;11.40;46.80
11239;DHT22;5677;48.488;13.436;2024-03-25T13:49:43;11.40;46.80
11239;DHT22;5677;48.488;13.436;2024-03-25T13:52:08;11.40;46.90
11239;DHT22;5677;48.488;13.436;2024-03-25T13:54:34;11.40;46.90
11239;DHT22;5677;48.488;13.436;2024-03-25T13:57:00;11.40;46.90
11239;DHT22;5677;48.488;13.436;2024-03-25T13:59:27;11.40;46.90
11239;DHT22;5677;48.488;13.436;2024-03-25T14:01:53;11.40;46.90
11239;DHT22;5677;48.488;13.436;2024-03-25T14:04:19;11.40;46.90
11239;DHT22;5677;48.488;13.436;2024-03-25T14:06:45;11.40;46.90
11239;DHT22;5677;48.488;13.436;2024-03-25T14:09:23;11.40;46.90
11239;DHT22;5677;48.488;13.436;2024-03-25T14:11:50;11.50;47.60
11239;DHT22;5677;48.488;13.436;2024-03-25T14:14:16;11.40;46.90
11239;DHT22;5677;48.488;13.436;2024-03-25T14:16:43;11.50;47.00
11239;DHT22;5677;48.488;13.436;2024-03-25T14:19:09;11.50;47.00
11239;DHT22;5677;48.488;13.436;2024-03-25T14:21:35;11.40;46.90
11239;DHT22;5677;48.488;13.436;2024-03-25T14:24:01;11.40;46.90
11239;DHT22;5677;48.488;13.436;2024-03-25T14:26:27;11.40;46.90
11239;DHT22;5677;48.488;13.436;2024-03-25T14:28:53;11.40;46.90
11239;DHT22;5677;48.488;13.436;2024-03-25T14:31:19;11.50;47.00
11239;DHT22;5677;48.488;13.436;2024-03-25T14:33:46;11.50;47.00
11239;DHT22;5677;48.488;13.436;2024-03-25T14:36:12;11.50;47.00
11239;DHT22;5677;48.488;13.436;2024-03-25T14:38:38;11.50;47.10
11239;DHT22;5677;48.488;13.436;2024-03-25T14:41:03;11.50;47.10
11239;DHT22;5677;48.488;13.436;2024-03-25T14:43:29;11.50;47.10
11239;DHT22;5677;48.488;13.436;2024-03-25T14:45:55;11.50;47.30
11239;DHT22;5677;48.488;13.436;2024-03-25T14:48:21;11.50;47.10
11239;DHT22;5677;48.488;13.436;2024-03-25T14:50:48;11.50;47.10
11239;DHT22;5677;48.488;13.436;2024-03-25T14:53:14;11.50;47.10
11239;DHT22;5677;48.488;13.436;2024-03-25T14:55:41;11.50;47.10
11239;DHT22;5677;48.488;13.436;2024-03-25T14:58:07;11.50;47.10
11239;DHT22;5677;48.488;13.436;2024-03-25T15:00:33;11.50;47.10
11239;DHT22;5677;48.488;13.436;2024-03-25T15:02:59;11.50;47.10
11239;DHT22;5677;48.488;13.436;2024-03-25T15:05:25;11.50;47.10
11239;DHT22;5677;48.488;13.436;2024-03-25T15:07:52;11.50;47.10
11239;DHT22;5677;48.488;13.436;2024-03-25T15:10:18;11.50;47.10
11239;DHT22;5677;48.488;13.436;2024-03-25T15:12:45;11.50;47.10
11239;DHT22;5677;48.488;13.436;2024-03-25T15:15:11;11.50;47.20
11239;DHT22;5677;48.488;13.436;2024-03-25T15:17:37;11.50;47.20
11239;DHT22;5677;48.488;13.436;2024-03-25T15:20:04;11.50;47.20
11239;DHT22;5677;48.488;13.436;2024-03-25T15:22:30;11.50;47.20
11239;DHT22;5677;48.488;13.436;2024-03-25T15:24:57;11.50;47.20
11239;DHT22;5677;48.488;13.436;2024-03-25T15:27:23;11.50;47.20